createdAt,value
2022-10-11T00:00:02.274Z,6.57
2022-10-11T00:02:35.269Z,7.53
2022-10-11T00:05:06.445Z,7.38
2022-10-11T00:07:39.081Z,7.57
2022-10-11T00:10:11.490Z,6.90
2022-10-11T00:12:42.720Z,7.07
2022-10-11T00:15:22.376Z,6.50
2022-10-11T00:17:53.713Z,6.15
2022-10-11T00:20:24.833Z,5.78
2022-10-11T00:22:56.257Z,6.20
2022-10-11T00:25:27.138Z,6.45
2022-10-11T00:27:58.184Z,6.10
2022-10-11T00:30:45.117Z,5.75
2022-10-11T00:33:29.453Z,5.70
2022-10-11T00:36:02.725Z,5.50
2022-10-11T00:38:48.298Z,5.43
2022-10-11T00:41:29.490Z,4.87
2022-10-11T00:44:24.364Z,5.40
2022-10-11T00:47:27.234Z,4.88
2022-10-11T00:50:12.754Z,5.15
2022-10-11T00:53:13.763Z,4.55
2022-10-11T00:55:57.254Z,5.45
2022-10-11T00:58:48.335Z,4.72
2022-10-11T01:01:30.743Z,4.45
2022-10-11T01:04:29.969Z,4.18
2022-10-11T01:07:15.560Z,5.22
2022-10-11T01:09:57.069Z,4.37
2022-10-11T01:13:01.250Z,4.68
2022-10-11T01:16:09.707Z,4.35
2022-10-11T01:19:10.978Z,4.03
2022-10-11T01:22:19.948Z,4.40
2022-10-11T01:25:27.944Z,4.40
2022-10-11T01:28:56.256Z,4.65
2022-10-11T01:32:00.096Z,4.85
2022-10-11T01:34:48.633Z,4.40
2022-10-11T01:38:09.893Z,4.60
2022-10-11T01:41:09.449Z,3.97
2022-10-11T01:44:13.281Z,4.50
2022-10-11T01:46:56.230Z,3.92
2022-10-11T01:52:52.709Z,3.92
2022-10-11T01:55:54.613Z,4.13
2022-10-11T01:59:29.116Z,4.68
2022-10-11T02:02:36.949Z,3.95
2022-10-11T02:06:12.278Z,4.07
2022-10-11T02:09:05.716Z,3.95
2022-10-11T02:13:10.246Z,3.92
2022-10-11T02:16:14.996Z,4.38
2022-10-11T02:19:16.940Z,4.05
2022-10-11T02:22:39.089Z,4.05
2022-10-11T02:25:25.857Z,3.80
2022-10-11T02:28:17.009Z,4.20
2022-10-11T02:31:04.652Z,3.33
2022-10-11T02:34:13.274Z,3.75
2022-10-11T02:37:55.408Z,3.60
2022-10-11T02:40:44.976Z,3.77
2022-10-11T02:44:11.078Z,3.50
2022-10-11T02:46:57.193Z,3.97
2022-10-11T02:50:13.023Z,3.50
2022-10-11T02:53:09.019Z,4.30
2022-10-11T02:56:21.152Z,3.53
2022-10-11T02:59:21.048Z,3.78
2022-10-11T03:02:08.451Z,3.80
2022-10-11T03:04:53.797Z,3.60
2022-10-11T03:08:00.510Z,4.10
2022-10-11T03:11:22.614Z,3.22
2022-10-11T03:14:04.249Z,3.53
2022-10-11T03:17:23.780Z,3.30
2022-10-11T03:20:25.723Z,3.55
2022-10-11T03:23:25.694Z,3.38
2022-10-11T03:26:10.982Z,3.67
2022-10-11T03:28:52.938Z,3.97
2022-10-11T03:31:50.283Z,3.53
2022-10-11T03:34:50.438Z,3.85
2022-10-11T03:37:55.274Z,3.33
2022-10-11T03:40:40.286Z,3.58
2022-10-11T03:43:44.196Z,3.87
2022-10-11T03:46:28.651Z,3.30
2022-10-11T03:49:26.835Z,3.22
2022-10-11T03:52:24.918Z,3.33
2022-10-11T03:55:22.438Z,3.35
2022-10-11T03:58:04.404Z,3.30
2022-10-11T04:00:45.919Z,3.40
2022-10-11T04:03:29.893Z,3.53
2022-10-11T04:06:15.247Z,3.38
2022-10-11T04:09:25.001Z,3.55
2022-10-11T04:12:11.599Z,3.90
2022-10-11T04:15:24.781Z,3.22
2022-10-11T04:18:22.882Z,3.15
2022-10-11T04:21:04.052Z,3.17
2022-10-11T04:23:44.950Z,2.92
2022-10-11T04:29:40.249Z,2.85
2022-10-11T04:32:40.590Z,2.78
2022-10-11T04:35:46.541Z,3.50
2022-10-11T04:38:27.939Z,3.10
2022-10-11T04:41:14.728Z,3.30
2022-10-11T04:44:16.086Z,3.47
2022-10-11T04:47:00.925Z,3.03
2022-10-11T04:50:03.507Z,3.30
2022-10-11T04:52:46.120Z,3.40
2022-10-11T04:55:30.834Z,3.10
2022-10-11T04:58:15.476Z,2.85
2022-10-11T05:00:56.955Z,3.58
2022-10-11T05:03:59.167Z,3.20
2022-10-11T05:06:57.131Z,3.08
2022-10-11T05:09:42.425Z,3.20
2022-10-11T05:12:42.056Z,3.55
2022-10-11T05:15:58.668Z,3.20
2022-10-11T05:19:01.713Z,2.95
2022-10-11T05:21:43.437Z,3.40
2022-10-11T05:24:25.035Z,3.17
2022-10-11T05:27:14.359Z,3.58
2022-10-11T05:30:13.612Z,2.90
2022-10-11T05:32:58.900Z,2.97
2022-10-11T05:36:02.644Z,3.22
2022-10-11T05:38:47.346Z,3.28
2022-10-11T05:41:30.834Z,2.97
2022-10-11T05:44:15.373Z,2.63
2022-10-11T05:47:17.089Z,3.05
2022-10-11T05:50:41.719Z,2.95
2022-10-11T05:53:26.360Z,2.78
2022-10-11T05:56:18.769Z,3.13
2022-10-11T05:59:25.277Z,2.88
2022-10-11T06:02:26.780Z,2.92
2022-10-11T06:05:49.737Z,2.88
2022-10-11T06:08:38.109Z,3.10
2022-10-11T06:11:29.712Z,3.15
2022-10-11T06:14:27.430Z,3.15
2022-10-11T06:17:43.638Z,2.75
2022-10-11T06:20:56.941Z,3.35
2022-10-11T06:24:00.923Z,2.80
2022-10-11T06:27:01.741Z,2.72
2022-10-11T06:30:48.578Z,2.50
2022-10-11T06:33:29.962Z,3.30
2022-10-11T06:36:37.444Z,2.78
2022-10-11T06:39:37.811Z,2.70
2022-10-11T06:42:49.257Z,2.83
2022-10-11T06:45:45.986Z,2.67
2022-10-11T06:51:27.985Z,2.60
2022-10-11T06:54:44.877Z,3.15
2022-10-11T06:57:50.745Z,2.92
2022-10-11T07:00:51.799Z,2.92
2022-10-11T07:03:55.026Z,2.70
2022-10-11T07:06:40.300Z,2.72
2022-10-11T07:09:40.381Z,2.67
2022-10-11T07:12:40.778Z,2.60
2022-10-11T07:15:39.779Z,2.90
2022-10-11T07:19:00.959Z,3.00
2022-10-11T07:22:03.038Z,2.97
2022-10-11T07:25:03.092Z,2.80
2022-10-11T07:27:45.225Z,2.85
2022-10-11T07:31:05.552Z,2.63
2022-10-11T07:33:46.742Z,2.65
2022-10-11T07:36:51.791Z,2.75
2022-10-11T07:39:33.411Z,3.10
2022-10-11T07:42:30.776Z,2.90
2022-10-11T07:45:12.427Z,3.15
2022-10-11T07:48:23.890Z,2.80
2022-10-11T07:51:23.576Z,2.88
2022-10-11T07:54:21.472Z,2.80
2022-10-11T07:57:03.571Z,2.97
2022-10-11T08:00:00.230Z,2.85
2022-10-11T08:03:23.270Z,2.88
2022-10-11T08:06:33.686Z,2.60
2022-10-11T08:09:34.615Z,3.30
2022-10-11T08:12:16.108Z,2.63
2022-10-11T08:15:41.961Z,3.03
2022-10-11T08:18:45.092Z,3.03
2022-10-11T08:21:43.277Z,3.38
2022-10-11T08:24:43.564Z,2.72
2022-10-11T08:27:40.899Z,3.60
2022-10-11T08:31:15.902Z,3.03
2022-10-11T08:34:16.576Z,2.67
2022-10-11T08:37:13.300Z,2.97
2022-10-11T08:40:39.214Z,2.85
2022-10-11T08:44:26.820Z,2.72
2022-10-11T08:47:39.268Z,2.97
2022-10-11T08:51:04.770Z,3.08
2022-10-11T08:54:32.952Z,3.30
2022-10-11T08:57:39.191Z,2.80
2022-10-11T09:00:56.473Z,3.20
2022-10-11T09:04:10.789Z,2.80
2022-10-11T09:07:26.835Z,3.22
2022-10-11T09:10:16.065Z,3.63
2022-10-11T09:13:12.819Z,3.33
2022-10-11T09:16:07.973Z,3.20
2022-10-11T09:19:16.357Z,3.15
2022-10-11T09:21:54.167Z,3.30
2022-10-11T09:25:09.265Z,3.45
2022-10-11T09:31:14.417Z,3.50
2022-10-11T09:34:37.317Z,2.97
2022-10-11T09:37:47.579Z,3.65
2022-10-11T09:41:15.679Z,4.18
2022-10-11T09:44:09.853Z,4.80
2022-10-11T09:47:01.690Z,5.30
2022-10-11T09:50:02.281Z,5.70
2022-10-11T09:53:23.088Z,5.28
2022-10-11T09:56:04.263Z,5.32
2022-10-11T09:58:57.051Z,5.70
2022-10-11T10:01:49.361Z,5.63
2022-10-11T10:05:00.729Z,5.63
2022-10-11T10:07:52.057Z,5.28
2022-10-11T10:11:05.352Z,5.50
2022-10-11T10:35:29.127Z,5.03
2022-10-11T10:38:26.711Z,5.40
2022-10-11T10:41:55.996Z,5.10
2022-10-11T10:44:27.270Z,4.65
2022-10-11T10:46:58.409Z,5.38
2022-10-11T10:50:10.942Z,4.80
2022-10-11T10:52:47.771Z,5.30
2022-10-11T10:55:30.414Z,4.97
2022-10-11T10:58:22.330Z,5.30
2022-10-11T11:01:18.410Z,5.25
2022-10-11T11:04:29.717Z,4.90
2022-10-11T11:07:23.203Z,5.85
2022-10-11T11:10:31.717Z,4.57
2022-10-11T11:13:11.760Z,4.45
2022-10-11T11:18:44.615Z,4.78
2022-10-11T12:09:02.988Z,5.47
2022-10-11T12:11:39.879Z,4.72
2022-10-11T12:15:06.039Z,4.65
2022-10-11T12:17:57.642Z,4.82
2022-10-11T12:21:27.345Z,4.82
2022-10-11T12:24:11.803Z,5.28
2022-10-11T12:47:12.997Z,5.50
2022-10-11T12:49:47.575Z,5.15
2022-10-11T12:52:24.606Z,5.30
2022-10-11T12:55:13.955Z,5.32
2022-10-11T12:58:13.699Z,6.05
2022-10-11T13:00:54.477Z,5.70
2022-10-11T13:03:32.798Z,5.18
2022-10-11T13:06:51.355Z,5.10
2022-10-11T13:31:28.120Z,4.97
2022-10-11T13:34:01.003Z,5.45
2022-10-11T13:36:55.100Z,5.15
2022-10-11T13:39:47.893Z,4.82
2022-10-11T14:01:04.343Z,5.13
2022-10-11T14:04:01.991Z,5.05
2022-10-11T14:07:20.122Z,5.20
2022-10-11T14:10:43.922Z,5.07
2022-10-11T14:13:34.220Z,4.82
2022-10-11T14:33:30.226Z,4.78
2022-10-11T14:36:01.640Z,5.03
2022-10-11T14:42:37.938Z,5.20
2022-10-11T14:45:30.933Z,5.47
2022-10-11T14:58:05.335Z,5.30
2022-10-11T15:00:38.158Z,4.63
2022-10-11T15:03:41.370Z,5.10
2022-10-11T15:06:59.685Z,4.95
2022-10-11T15:34:33.511Z,5.30
2022-10-11T15:37:47.641Z,4.65
2022-10-11T15:40:45.936Z,5.60
2022-10-11T15:43:48.339Z,4.78
2022-10-11T15:46:44.025Z,4.88
2022-10-11T16:05:48.781Z,4.55
2022-10-11T16:21:36.970Z,4.97
2022-10-11T16:24:53.794Z,4.78
2022-10-11T16:27:26.316Z,4.57
2022-10-11T16:40:11.138Z,4.70
2022-10-11T16:43:24.961Z,4.82
2022-10-11T16:46:42.953Z,5.07
2022-10-11T16:49:57.082Z,4.82
2022-10-11T16:52:56.483Z,4.80
2022-10-11T16:55:28.476Z,4.88
2022-10-11T17:18:42.325Z,4.60
2022-10-11T17:21:36.204Z,4.70
2022-10-11T17:24:07.231Z,5.07
2022-10-11T17:27:18.017Z,4.97
2022-10-11T17:30:13.324Z,5.10
2022-10-11T17:33:08.001Z,5.30
2022-10-11T17:35:39.965Z,4.30
2022-10-11T17:38:11.620Z,4.97
2022-10-11T17:40:44.053Z,5.20
2022-10-11T17:56:12.953Z,4.90
2022-10-11T17:59:04.405Z,4.63
2022-10-11T18:01:35.705Z,4.93
2022-10-11T18:04:08.127Z,4.32
2022-10-11T18:06:42.645Z,4.93
2022-10-11T18:09:40.141Z,5.20
2022-10-11T18:32:38.917Z,4.32
2022-10-11T18:35:49.878Z,4.93
2022-10-11T18:38:44.152Z,4.45
2022-10-11T18:41:40.705Z,4.30
2022-10-11T18:55:42.829Z,4.85
2022-10-11T18:58:13.950Z,4.32
2022-10-11T19:01:17.209Z,4.45
2022-10-11T19:04:17.148Z,4.50
2022-10-11T19:07:15.223Z,4.95
2022-10-11T19:09:46.265Z,4.85
2022-10-11T19:50:21.483Z,4.20
2022-10-11T19:52:52.423Z,4.22
2022-10-11T19:55:23.784Z,4.47
2022-10-11T19:57:54.957Z,4.28
2022-10-11T20:00:25.897Z,5.18
2022-10-11T20:02:56.885Z,4.78
2022-10-11T20:05:48.704Z,5.00
2022-10-11T20:08:19.603Z,5.00
2022-10-11T20:10:54.449Z,4.35
2022-10-11T20:13:25.321Z,5.05
2022-10-11T20:18:44.436Z,5.28
2022-10-11T20:21:18.504Z,5.00
2022-10-11T20:23:50.656Z,4.57
2022-10-11T20:26:26.990Z,4.43
2022-10-11T20:28:58.914Z,4.68
2022-10-11T20:31:34.939Z,4.28
2022-10-11T20:34:11.412Z,4.72
2022-10-11T20:36:48.204Z,6.78
2022-10-11T20:39:20.368Z,8.15
2022-10-11T20:41:51.457Z,12.55
2022-10-11T20:44:22.567Z,14.40
2022-10-11T20:46:54.988Z,14.07
2022-10-11T20:49:47.152Z,13.57
2022-10-11T20:52:39.013Z,14.93
2022-10-11T20:55:10.622Z,15.18
2022-10-11T20:58:02.532Z,13.98
2022-10-11T21:00:33.603Z,13.88
2022-10-11T21:03:04.491Z,13.82
2022-10-11T21:05:36.026Z,12.77
2022-10-11T21:08:07.597Z,11.90
2022-10-11T21:10:40.127Z,12.23
2022-10-11T21:13:11.235Z,11.13
2022-10-11T21:15:42.674Z,11.70
2022-10-11T21:18:14.902Z,10.48
2022-10-11T21:20:47.132Z,10.75
2022-10-11T21:23:20.440Z,10.98
2022-10-11T21:25:51.269Z,9.85
2022-10-11T21:28:41.936Z,10.80
2022-10-11T21:31:15.056Z,10.25
2022-10-11T21:33:46.895Z,10.30
2022-10-11T21:36:22.950Z,9.45
2022-10-11T21:38:56.248Z,9.15
2022-10-11T21:41:31.311Z,10.00
2022-10-11T21:44:02.429Z,8.68
2022-10-11T21:47:05.918Z,9.32
2022-10-11T21:49:25.011Z,9.48
2022-10-11T21:51:56.056Z,9.10
2022-10-11T21:54:27.081Z,9.40
2022-10-11T21:56:57.986Z,9.20
2022-10-11T21:59:30.202Z,9.25
2022-10-11T22:02:02.341Z,9.95
2022-10-11T22:04:54.430Z,9.07
2022-10-11T22:07:25.549Z,8.25
2022-10-11T22:10:02.117Z,8.48
2022-10-11T22:12:33.273Z,8.73
2022-10-11T22:15:04.505Z,8.85
2022-10-11T22:17:35.656Z,8.30
2022-10-11T22:20:07.029Z,9.52
2022-10-11T22:22:38.278Z,8.95
2022-10-11T22:25:09.751Z,9.40
2022-10-11T22:27:40.978Z,8.75
2022-10-11T22:30:12.447Z,8.57
2022-10-11T22:32:43.287Z,8.23
2022-10-11T22:35:14.154Z,8.48
2022-10-11T22:37:45.439Z,8.63
2022-10-11T22:40:16.416Z,8.45
2022-10-11T22:42:47.813Z,8.00
2022-10-11T22:45:19.034Z,7.90
2022-10-11T22:47:50.002Z,8.00
2022-10-11T22:50:21.799Z,8.00
2022-10-11T22:52:52.872Z,7.47
2022-10-11T22:55:24.384Z,8.07
2022-10-11T22:57:55.949Z,7.75
2022-10-11T23:00:28.104Z,7.93
2022-10-11T23:03:20.514Z,7.70
2022-10-11T23:06:02.270Z,7.35
2022-10-11T23:08:33.153Z,7.63
2022-10-11T23:11:08.889Z,7.55
2022-10-11T23:13:39.704Z,7.57
2022-10-11T23:16:12.750Z,8.55
2022-10-11T23:18:44.042Z,6.90
2022-10-11T23:21:14.925Z,8.20
2022-10-11T23:23:46.103Z,7.97
2022-10-11T23:26:18.695Z,7.28
2022-10-11T23:28:49.810Z,7.15
2022-10-11T23:31:21.327Z,7.47
2022-10-11T23:33:52.461Z,7.47
2022-10-11T23:36:28.782Z,7.30
2022-10-11T23:39:01.417Z,7.82
2022-10-11T23:41:32.817Z,7.20
2022-10-11T23:44:23.576Z,9.57
2022-10-11T23:46:54.420Z,9.85
2022-10-11T23:49:25.236Z,12.32
2022-10-11T23:52:18.943Z,12.10
2022-10-11T23:54:50.057Z,13.93
2022-10-11T23:57:22.488Z,13.15
2022-10-11T23:59:53.418Z,14.52
